createdAt,value
2019-04-21T00:01:37.113Z,152353.50
2019-04-21T00:04:11.344Z,152349.67
2019-04-21T00:06:55.277Z,152315.13
2019-04-21T00:11:56.953Z,152349.67
2019-04-21T00:14:22.504Z,152310.03
2019-04-21T00:16:50.401Z,152297.27
2019-04-21T00:19:19.818Z,152350.94
2019-04-21T00:21:51.010Z,152389.28
2019-04-21T00:24:28.816Z,152362.44
2019-04-21T00:27:05.241Z,152399.47
2019-04-21T00:29:45.697Z,152358.61
2019-04-21T00:32:05.247Z,152325.41
2019-04-21T00:34:21.759Z,152276.84
2019-04-21T00:37:03.191Z,152207.89
2019-04-21T00:39:58.750Z,152184.91
2019-04-21T00:42:16.777Z,152164.47
2019-04-21T00:44:38.064Z,152207.89
2019-04-21T00:47:13.976Z,152161.91
2019-04-21T00:49:53.996Z,152103.22
2019-04-21T00:52:47.539Z,152138.97
2019-04-21T00:55:18.142Z,152115.97
2019-04-21T00:57:39.545Z,152044.44
2019-04-21T01:00:07.373Z,152024.03
2019-04-21T01:02:46.887Z,152008.75
2019-04-21T01:05:15.224Z,152049.58
2019-04-21T01:07:41.053Z,152080.22
2019-04-21T01:10:06.557Z,152081.53
2019-04-21T01:12:43.375Z,152047.02
2019-04-21T01:15:25.039Z,152011.28
2019-04-21T01:17:46.019Z,152007.44
2019-04-21T01:20:10.261Z,152029.16
2019-04-21T01:22:27.779Z,151969.19
2019-04-21T01:25:08.096Z,151960.27
2019-04-21T01:27:52.071Z,151937.28
2019-04-21T01:30:22.532Z,151916.88
2019-04-21T01:32:53.215Z,151927.06
2019-04-21T01:35:20.879Z,151974.28
2019-04-21T01:37:57.770Z,151936.03
2019-04-21T01:40:36.163Z,151904.13
2019-04-21T01:42:58.344Z,151929.63
2019-04-21T01:45:26.493Z,151995.95
2019-04-21T01:48:03.606Z,151909.22
2019-04-21T01:50:28.992Z,151891.37
2019-04-21T01:53:19.746Z,151923.22
2019-04-21T01:55:48.529Z,151896.47
2019-04-21T01:58:19.445Z,151873.50
2019-04-21T02:00:54.381Z,151904.13
2019-04-21T02:03:48.369Z,151891.37
2019-04-21T02:06:04.438Z,151837.78
2019-04-21T02:08:32.427Z,151785.44
2019-04-21T02:11:08.053Z,151776.52
2019-04-21T02:13:43.882Z,151804.62
2019-04-21T02:16:06.539Z,151771.44
2019-04-21T02:18:40.740Z,151802.09
2019-04-21T02:20:59.268Z,151794.44
2019-04-21T02:24:46.894Z,151766.34
2019-04-21T02:27:17.361Z,151799.53
2019-04-21T02:29:41.147Z,151785.44
2019-04-21T02:32:28.704Z,151735.72
2019-04-21T02:35:13.660Z,151726.80
2019-04-21T02:42:26.448Z,151789.25
2019-04-21T02:45:00.390Z,151762.52
2019-04-21T02:50:21.253Z,151758.69
2019-04-21T02:52:37.818Z,151689.84
2019-04-21T02:55:03.961Z,151668.13
2019-04-21T02:57:43.838Z,151649.05
2019-04-21T03:05:48.819Z,151628.66
2019-04-21T03:08:34.357Z,151613.34
2019-04-21T03:10:43.390Z,151615.86
2019-04-21T03:13:21.872Z,151679.61
2019-04-21T03:20:50.992Z,151812.28
2019-04-21T03:23:28.041Z,151832.69
2019-04-21T03:25:52.035Z,151855.66
2019-04-21T03:36:33.287Z,151677.09
2019-04-21T03:38:39.087Z,151665.61
2019-04-21T03:40:57.695Z,151657.97
2019-04-21T03:45:58.182Z,151674.53
2019-04-21T03:48:35.570Z,151744.63
2019-04-21T03:51:13.827Z,151791.83
2019-04-21T03:53:40.041Z,151703.84
2019-04-21T03:56:23.280Z,151747.20
2019-04-21T03:58:54.641Z,151711.48
2019-04-21T04:04:12.188Z,151643.91
2019-04-21T04:06:25.966Z,151664.30
2019-04-21T04:09:10.614Z,151688.53
2019-04-21T04:11:38.091Z,151692.34
2019-04-21T04:16:37.981Z,151649.05
2019-04-21T04:21:37.211Z,151563.66
2019-04-21T04:27:02.376Z,151479.48
2019-04-21T04:29:22.531Z,151443.81
2019-04-21T04:34:22.834Z,151450.16
2019-04-21T04:42:12.617Z,151406.87
2019-04-21T04:44:46.492Z,151360.98
2019-04-21T04:47:12.302Z,151364.81
2019-04-21T04:57:27.448Z,151368.62
2019-04-21T04:59:49.591Z,151330.44
2019-04-21T05:02:33.640Z,151298.59
2019-04-21T05:09:59.840Z,151344.42
2019-04-21T05:12:19.079Z,151453.97
2019-04-21T05:14:53.403Z,151442.55
2019-04-21T05:17:30.949Z,151417.03
2019-04-21T05:24:44.054Z,151408.12
2019-04-21T05:27:29.524Z,151429.77
2019-04-21T05:30:16.992Z,151411.95
2019-04-21T05:32:57.572Z,151436.16
2019-04-21T05:35:23.214Z,151447.63
2019-04-21T05:38:01.838Z,151451.45
2019-04-21T05:40:24.818Z,151437.42
2019-04-21T05:43:04.463Z,151457.80
2019-04-21T05:45:34.894Z,151448.89
2019-04-21T05:48:21.084Z,151469.27
2019-04-21T05:50:38.061Z,151476.92
2019-04-21T05:53:08.243Z,151489.66
2019-04-21T05:58:14.497Z,151529.22
2019-04-21T06:03:36.923Z,151543.22
2019-04-21T06:06:08.292Z,151663.05
2019-04-21T06:08:30.834Z,151752.28
2019-04-21T06:11:07.279Z,151804.62
2019-04-21T06:13:45.962Z,151788.00
2019-04-21T06:16:09.337Z,151817.38
2019-04-21T06:21:11.150Z,151863.31
2019-04-21T06:23:42.230Z,151900.30
2019-04-21T06:26:27.018Z,151953.86
2019-04-21T06:28:45.376Z,151878.58
2019-04-21T06:31:26.939Z,151941.11
2019-04-21T06:51:30.717Z,152113.41
2019-04-21T06:56:41.229Z,152113.41
2019-04-21T06:59:06.692Z,152118.55
2019-04-21T07:01:42.267Z,152168.31
2019-04-21T07:04:18.471Z,152175.97
2019-04-21T07:06:48.072Z,152186.16
2019-04-21T07:11:36.791Z,152232.16
2019-04-21T07:14:27.127Z,152234.67
2019-04-21T07:16:52.845Z,152212.98
2019-04-21T07:19:21.015Z,152229.58
2019-04-21T07:22:03.191Z,152267.91
2019-04-21T07:24:30.467Z,152298.53
2019-04-21T07:29:32.218Z,152344.58
2019-04-21T07:31:59.144Z,152372.63
2019-04-21T07:34:27.239Z,152394.38
2019-04-21T07:36:57.986Z,152409.72
2019-04-21T07:39:29.254Z,152426.31
2019-04-21T07:41:54.046Z,152394.38
2019-04-21T07:44:28.549Z,152445.44
2019-04-21T07:46:58.556Z,152463.34
2019-04-21T07:49:39.952Z,152486.36
2019-04-21T07:52:28.590Z,152491.45
2019-04-21T07:55:12.406Z,152504.22
2019-04-21T07:57:28.117Z,152556.63
2019-04-21T08:00:14.928Z,152568.17
2019-04-21T08:02:34.278Z,152578.38
2019-04-21T08:05:20.559Z,152574.53
2019-04-21T08:07:49.361Z,152593.72
2019-04-21T08:10:03.197Z,152609.06
2019-04-21T08:12:37.022Z,152638.44
2019-04-21T08:15:18.161Z,152651.22
2019-04-21T08:17:41.516Z,152660.16
2019-04-21T08:20:13.831Z,152675.50
2019-04-21T08:30:28.899Z,152761.14
2019-04-21T08:37:55.217Z,152831.53
2019-04-21T08:40:43.683Z,152850.69
2019-04-21T08:43:02.808Z,152867.36
2019-04-21T08:45:35.906Z,152867.36
2019-04-21T08:48:04.139Z,152873.72
2019-04-21T08:50:37.271Z,152913.38
2019-04-21T08:53:07.966Z,152904.44
2019-04-21T08:55:51.902Z,152940.25
2019-04-21T08:58:22.675Z,152959.41
2019-04-21T09:01:00.889Z,152977.34
2019-04-21T09:03:43.265Z,153001.64
2019-04-21T09:06:23.553Z,153005.53
2019-04-21T09:08:46.024Z,153029.83
2019-04-21T09:11:17.243Z,153028.53
2019-04-21T09:13:47.714Z,153059.25
2019-04-21T09:16:18.794Z,153066.94
2019-04-21T09:18:48.779Z,153077.14
2019-04-21T09:21:28.539Z,153115.55
2019-04-21T09:24:00.597Z,153148.81
2019-04-21T09:26:27.911Z,153185.91
2019-04-21T09:28:54.017Z,153189.75
2019-04-21T09:31:12.117Z,153200.02
2019-04-21T09:33:47.130Z,153230.75
2019-04-21T09:36:17.943Z,153253.81
2019-04-21T09:38:50.733Z,153280.66
2019-04-21T09:41:18.959Z,153281.97
2019-04-21T09:43:52.203Z,153301.14
2019-04-21T09:46:20.759Z,153293.50
2019-04-21T09:48:58.249Z,153312.67
2019-04-21T09:51:21.933Z,153354.94
2019-04-21T09:53:58.337Z,153389.48
2019-04-21T09:56:31.431Z,153412.56
2019-04-21T09:59:05.359Z,153407.44
2019-04-21T10:01:38.945Z,153369.00
2019-04-21T10:04:00.221Z,153416.41
2019-04-21T10:06:28.528Z,153465.11
2019-04-21T10:09:03.989Z,153489.44
2019-04-21T10:11:29.496Z,153524.00
2019-04-21T10:13:59.126Z,153579.09
2019-04-21T10:16:34.253Z,153595.75
2019-04-21T10:19:04.653Z,153586.78
2019-04-21T10:21:34.326Z,153627.81
2019-04-21T10:24:04.203Z,153638.05
2019-04-21T10:26:33.909Z,153644.47
2019-04-21T10:29:09.384Z,153694.42
2019-04-21T10:31:34.901Z,153712.39
2019-04-21T10:34:05.314Z,153738.00
2019-04-21T10:36:35.159Z,153714.92
2019-04-21T10:39:06.172Z,153721.36
2019-04-21T10:41:35.728Z,153771.31
2019-04-21T10:44:05.300Z,153736.73
2019-04-21T10:46:35.051Z,153809.84
2019-04-21T10:49:04.675Z,153823.91
2019-04-21T10:51:35.164Z,153873.89
2019-04-21T10:54:06.270Z,153896.98
2019-04-21T10:56:42.389Z,153889.28
2019-04-21T10:59:10.050Z,153927.77
2019-04-21T11:01:41.037Z,153922.61
2019-04-21T11:04:22.783Z,153890.59
2019-04-21T11:06:48.569Z,153854.70
2019-04-21T11:09:20.083Z,153935.47
2019-04-21T11:11:51.673Z,153968.78
2019-04-21T11:14:21.413Z,153984.23
2019-04-21T11:16:52.908Z,154020.09
2019-04-21T11:19:22.396Z,154031.64
2019-04-21T11:21:52.577Z,154067.56
2019-04-21T11:24:23.017Z,154064.97
2019-04-21T11:26:53.796Z,154099.62
2019-04-21T11:29:23.494Z,154132.97
2019-04-21T11:31:53.069Z,154148.36
2019-04-21T11:34:23.069Z,154148.36
2019-04-21T11:36:52.686Z,154166.34
2019-04-21T11:39:35.069Z,154118.88
2019-04-21T11:41:55.181Z,154088.08
2019-04-21T11:44:24.924Z,154129.11
2019-04-21T11:46:54.562Z,154185.61
2019-04-21T11:49:27.508Z,154140.66
2019-04-21T11:51:56.500Z,154192.03
2019-04-21T11:54:26.736Z,154204.86
2019-04-21T11:56:56.997Z,154258.72
2019-04-21T11:59:27.907Z,154243.31
2019-04-21T12:01:57.551Z,154195.89
2019-04-21T12:04:27.635Z,154235.62
2019-04-21T12:06:57.850Z,154227.97
2019-04-21T12:09:27.598Z,154226.66
2019-04-21T12:11:57.223Z,154272.86
2019-04-21T12:14:28.124Z,154308.75
2019-04-21T12:16:59.212Z,154288.22
2019-04-21T12:19:28.903Z,154338.34
2019-04-21T12:22:08.063Z,154313.91
2019-04-21T12:24:32.965Z,154364.00
2019-04-21T12:27:05.631Z,154385.80
2019-04-21T12:29:37.815Z,154398.67
2019-04-21T12:32:18.014Z,154401.20
2019-04-21T12:34:50.507Z,154387.11
2019-04-21T12:37:19.237Z,154392.23
2019-04-21T12:39:50.472Z,154448.72
2019-04-21T12:42:20.778Z,154458.95
2019-04-21T12:44:51.640Z,154479.48
2019-04-21T12:47:21.771Z,154518.06
2019-04-21T12:49:54.041Z,154554.02
2019-04-21T12:52:24.035Z,154514.22
2019-04-21T12:54:53.605Z,154548.84
2019-04-21T12:57:23.652Z,154588.66
2019-04-21T12:59:53.204Z,154601.50
2019-04-21T13:02:25.423Z,154595.09
2019-04-21T13:04:55.871Z,154656.72
2019-04-21T13:07:25.840Z,154702.98
2019-04-21T13:09:55.451Z,154702.98
2019-04-21T13:12:25.194Z,154727.38
2019-04-21T13:14:57.411Z,154826.37
2019-04-21T13:17:26.101Z,154848.19
2019-04-21T13:19:56.906Z,154949.69
2019-04-21T13:22:27.883Z,155001.11
2019-04-21T13:24:57.993Z,155098.78
2019-04-21T13:27:28.852Z,155201.69
2019-04-21T13:29:59.971Z,155260.81
2019-04-21T13:32:31.077Z,155271.11
2019-04-21T13:35:01.206Z,155213.22
2019-04-21T13:37:30.861Z,155341.88
2019-04-21T13:40:24.913Z,155399.72
2019-04-21T13:42:40.258Z,155455.09
2019-04-21T13:45:08.214Z,155484.67
2019-04-21T13:47:38.686Z,155534.83
2019-04-21T13:50:09.382Z,155820.59
2019-04-21T13:52:38.963Z,155935.20
2019-04-21T13:55:11.823Z,157023.28
2019-04-21T13:57:41.377Z,157743.84
2019-04-21T14:00:13.072Z,158544.06
2019-04-21T14:02:42.868Z,158960.70
2019-04-21T14:05:15.500Z,159391.87
2019-04-21T14:07:44.313Z,159707.98
2019-04-21T14:10:16.082Z,159417.80
2019-04-21T14:12:46.774Z,159889.38
2019-04-21T14:15:18.090Z,160056.53
2019-04-21T14:17:48.918Z,160512.89
2019-04-21T14:20:19.515Z,160540.13
2019-04-21T14:22:49.693Z,160619.23
2019-04-21T14:25:19.701Z,160063.03
2019-04-21T14:27:51.675Z,160492.11
2019-04-21T14:30:22.737Z,160558.25
2019-04-21T14:32:52.322Z,161051.20
2019-04-21T14:35:22.896Z,160931.81
2019-04-21T14:37:52.946Z,160758.00
2019-04-21T14:40:27.270Z,160649.09
2019-04-21T14:42:54.115Z,160864.41
2019-04-21T14:45:28.263Z,160952.61
2019-04-21T14:48:00.856Z,160068.20
2019-04-21T14:50:42.158Z,160930.53
2019-04-21T14:53:16.258Z,161199.14
2019-04-21T14:55:46.398Z,161265.28
2019-04-21T14:58:17.224Z,160924.03
2019-04-21T15:01:04.160Z,160534.97
2019-04-21T15:03:34.198Z,160601.11
2019-04-21T15:06:05.422Z,160769.72
2019-04-21T15:08:35.402Z,160597.22
2019-04-21T15:11:05.348Z,160576.44
2019-04-21T15:13:35.490Z,160824.16
2019-04-21T15:16:06.763Z,160892.94
2019-04-21T15:18:36.834Z,161031.78
2019-04-21T15:21:07.798Z,160800.81
2019-04-21T15:23:38.198Z,161276.97
2019-04-21T15:26:08.271Z,160617.95
2019-04-21T15:28:40.519Z,160959.11
2019-04-21T15:31:15.173Z,160706.12
2019-04-21T15:33:41.368Z,160282.08
2019-04-21T15:36:11.282Z,160686.72
2019-04-21T15:38:40.910Z,160516.78
2019-04-21T15:41:10.963Z,160708.73
2019-04-21T15:43:42.608Z,160812.50
2019-04-21T15:46:13.157Z,160649.09
2019-04-21T15:48:44.786Z,160846.19
2019-04-21T15:51:15.829Z,160977.25
2019-04-21T15:53:47.879Z,160544.02
2019-04-21T15:56:20.579Z,160700.95
2019-04-21T15:58:52.671Z,160617.95
2019-04-21T16:01:36.609Z,159959.31
2019-04-21T16:04:07.886Z,158853.28
2019-04-21T16:06:39.384Z,158077.25
2019-04-21T16:09:16.176Z,157619.80
2019-04-21T16:11:42.141Z,157173.00
2019-04-21T16:14:11.836Z,156966.53
2019-04-21T16:16:41.400Z,156858.12
2019-04-21T16:19:12.330Z,156285.64
2019-04-21T16:21:44.394Z,156410.69
2019-04-21T16:24:14.247Z,156311.44
2019-04-21T16:26:44.602Z,156159.36
2019-04-21T16:29:15.340Z,156071.75
2019-04-21T16:31:45.132Z,155954.52
2019-04-21T16:34:15.787Z,155869.55
2019-04-21T16:36:45.699Z,155791.00
2019-04-21T16:39:15.652Z,155718.86
2019-04-21T16:41:46.505Z,155618.52
2019-04-21T16:44:16.837Z,155543.88
2019-04-21T16:46:47.507Z,155577.31
2019-04-21T16:49:17.862Z,155466.69
2019-04-21T16:51:50.021Z,155412.58
2019-04-21T16:54:21.987Z,155350.86
2019-04-21T16:56:55.787Z,155322.56
2019-04-21T16:59:28.577Z,155329.02
2019-04-21T17:01:58.777Z,155286.50
2019-04-21T17:04:28.721Z,155211.95
2019-04-21T17:06:58.916Z,155112.94
2019-04-21T17:09:28.771Z,155075.67
2019-04-21T17:12:03.372Z,154985.72
2019-04-21T17:14:47.734Z,154993.44
2019-04-21T17:17:29.279Z,154926.55
2019-04-21T17:19:38.153Z,154884.17
2019-04-21T17:22:03.975Z,154844.34
2019-04-21T17:24:34.713Z,154809.58
2019-04-21T17:27:05.058Z,154765.94
2019-04-21T17:29:34.768Z,154749.25
2019-04-21T17:32:07.696Z,154677.31
2019-04-21T17:34:37.400Z,154596.37
2019-04-21T17:37:08.720Z,154633.59
2019-04-21T17:39:38.751Z,154598.95
2019-04-21T17:42:19.738Z,154528.31
2019-04-21T17:44:39.764Z,154533.48
2019-04-21T17:47:20.102Z,154519.34
2019-04-21T17:49:41.097Z,154502.66
2019-04-21T17:52:23.141Z,154478.22
2019-04-21T17:55:09.245Z,154465.39
2019-04-21T17:57:52.077Z,154428.17
2019-04-21T18:00:43.394Z,154429.44
2019-04-21T18:02:54.765Z,154399.94
2019-04-21T18:05:27.512Z,154371.70
2019-04-21T18:07:58.629Z,154356.28
2019-04-21T18:10:33.485Z,154335.77
2019-04-21T18:12:52.114Z,154284.37
2019-04-21T18:15:36.362Z,154252.34
2019-04-21T18:17:47.865Z,154260.00
2019-04-21T18:20:19.664Z,154194.56
2019-04-21T18:22:59.062Z,154138.08
2019-04-21T18:25:42.285Z,154158.66
2019-04-21T18:28:02.970Z,154150.94
2019-04-21T18:30:54.223Z,154145.78
2019-04-21T18:33:29.970Z,154120.14
2019-04-21T18:36:02.889Z,154097.03
2019-04-21T18:39:10.371Z,154085.53
2019-04-21T18:41:28.716Z,154066.30
2019-04-21T18:44:21.337Z,154045.78
2019-04-21T18:46:55.133Z,154040.66
2019-04-21T18:49:19.447Z,154023.94
2019-04-21T18:52:20.779Z,153982.92
2019-04-21T18:54:59.906Z,153962.36
2019-04-21T18:57:26.468Z,153939.31
2019-04-21T18:59:47.715Z,153934.16
2019-04-21T19:02:20.746Z,153895.72
2019-04-21T19:04:50.170Z,153870.09
2019-04-21T19:07:37.867Z,153849.59
2019-04-21T19:10:22.247Z,153814.95
2019-04-21T19:13:17.456Z,153817.53
2019-04-21T19:15:04.388Z,153794.41
2019-04-21T19:18:14.901Z,153771.31
2019-04-21T19:20:22.309Z,153748.28
2019-04-21T19:22:47.496Z,153693.16
2019-04-21T19:25:34.928Z,153662.39
2019-04-21T19:27:49.040Z,153645.75
2019-04-21T19:30:33.216Z,153650.91
2019-04-21T19:32:51.079Z,153623.97
2019-04-21T19:35:11.668Z,153576.52
2019-04-21T19:37:49.757Z,153536.84
2019-04-21T19:40:31.700Z,153525.31
2019-04-21T19:42:55.781Z,153535.53
2019-04-21T19:45:33.155Z,153517.63
2019-04-21T19:48:08.057Z,153463.84
2019-04-21T19:50:43.946Z,153440.78
2019-04-21T19:53:00.917Z,153438.19
2019-04-21T19:55:22.257Z,153433.09
2019-04-21T19:57:52.717Z,153353.62
2019-04-21T20:00:22.602Z,153257.66
2019-04-21T20:02:54.232Z,153241.02
2019-04-21T20:05:34.975Z,153319.09
2019-04-21T20:08:11.399Z,153312.67
2019-04-21T20:10:51.834Z,153319.09
2019-04-21T20:13:25.953Z,153293.50
2019-04-21T20:15:51.028Z,153280.66
2019-04-21T20:18:15.305Z,153260.19
2019-04-21T20:20:35.144Z,153248.70
2019-04-21T20:23:08.899Z,153246.13
2019-04-21T20:25:43.701Z,153237.17
2019-04-21T20:28:15.681Z,153220.55
2019-04-21T20:30:59.595Z,153153.91
2019-04-21T20:36:08.156Z,153139.86
2019-04-21T20:38:24.477Z,153123.23
2019-04-21T20:40:56.934Z,153125.77
2019-04-21T20:43:38.131Z,153072.03
2019-04-21T20:46:06.114Z,153080.98
2019-04-21T20:48:34.420Z,153074.61
2019-04-21T20:51:09.239Z,153064.36
2019-04-21T20:53:34.257Z,153042.63
2019-04-21T20:56:02.366Z,153038.78
2019-04-21T20:58:40.771Z,153023.42
2019-04-21T21:01:25.745Z,153020.84
2019-04-21T21:03:46.034Z,152991.38
2019-04-21T21:06:09.951Z,152995.22
2019-04-21T21:08:52.946Z,152979.86
2019-04-21T21:11:22.007Z,152982.44
2019-04-21T21:13:53.688Z,152969.66
2019-04-21T21:19:08.101Z,152950.45
2019-04-21T21:21:20.619Z,152904.44
2019-04-21T21:23:56.303Z,152930.00
2019-04-21T21:26:43.863Z,152921.05
2019-04-21T21:28:52.009Z,152900.59
2019-04-21T21:31:30.800Z,152900.59
2019-04-21T21:34:11.811Z,152890.34
2019-04-21T21:36:31.844Z,152891.66
2019-04-21T21:39:10.057Z,152867.36
2019-04-21T21:41:26.561Z,152867.36
2019-04-21T21:44:00.551Z,152850.69
2019-04-21T21:46:36.874Z,152859.67
2019-04-21T21:49:01.931Z,152841.75
2019-04-21T21:51:42.254Z,152834.06
2019-04-21T21:53:54.897Z,152814.92
2019-04-21T21:56:26.814Z,152813.61
2019-04-21T21:58:57.131Z,152822.59
2019-04-21T22:01:31.864Z,152794.47
2019-04-21T22:04:08.809Z,152802.09
2019-04-21T22:06:39.654Z,152789.31
2019-04-21T22:09:00.981Z,152756.03
2019-04-21T22:11:32.091Z,152739.42
2019-04-21T22:14:06.244Z,152740.69
2019-04-21T22:16:46.610Z,152726.66
2019-04-21T22:19:21.879Z,152669.14
2019-04-21T22:21:53.620Z,152670.41
2019-04-21T22:24:21.610Z,152671.66
2019-04-21T22:26:39.029Z,152660.16
2019-04-21T22:29:09.697Z,152644.84
2019-04-21T22:31:41.583Z,152637.19
2019-04-21T22:34:13.171Z,152634.61
2019-04-21T22:36:48.737Z,152638.44
2019-04-21T22:39:38.405Z,152643.55
2019-04-21T22:41:48.425Z,152642.28
2019-04-21T22:44:20.705Z,152611.58
2019-04-21T22:47:00.035Z,152584.78
2019-04-21T22:49:23.593Z,152593.72
2019-04-21T22:51:53.965Z,152586.03
2019-04-21T22:54:32.626Z,152588.61
2019-04-21T22:57:05.174Z,152563.03
2019-04-21T22:59:30.554Z,152559.23
2019-04-21T23:02:01.508Z,152566.86
2019-04-21T23:04:35.572Z,152552.78
2019-04-21T23:07:07.854Z,152474.84
2019-04-21T23:09:35.004Z,152493.98
2019-04-21T23:12:05.082Z,152505.48
2019-04-21T23:14:46.746Z,152477.38
2019-04-21T23:17:29.902Z,152493.98
2019-04-21T23:19:59.916Z,152511.91
2019-04-21T23:22:27.607Z,152488.88
2019-04-21T23:25:03.709Z,152269.17
2019-04-21T23:27:23.837Z,152322.84
2019-04-21T23:30:08.119Z,152368.84
2019-04-21T23:32:27.842Z,152385.44
2019-04-21T23:34:47.079Z,152330.50
2019-04-21T23:37:21.714Z,152348.41
2019-04-21T23:39:52.214Z,152372.63
2019-04-21T23:42:28.622Z,152380.30
2019-04-21T23:44:55.203Z,152350.94
2019-04-21T23:47:34.552Z,152316.44
2019-04-21T23:50:02.715Z,152293.44
2019-04-21T23:52:25.606Z,152290.86
2019-04-21T23:54:55.680Z,152243.66
2019-04-21T23:57:32.566Z,152264.08
2019-04-21T23:59:58.849Z,152269.17
